CFG1HC EDDF-EGKK
Flight info
| Callsign | CFG1HC |
|---|---|
| Flight time | N/A |
| Altitude | 34000 |
| Route | OBOKA3M/25C OBOKA Z29 TORNU DCT GALSO Q63 ARREK Y4 TEBRA |
| Aircraft | A320/M-SDE3FGHIJ1LORVWXYZ/SB1 |
Departure
| Time | 2026-04-17 09:28 |
|---|---|
| Airport | Frankfurt Main Airport (EDDF) |
Arrival
| Time | N/A |
|---|---|
| Airport | London Gatwick Airport (EGKK) |
| Time | Latitude | Longitude | Altitude | Speed | Heading |
|---|---|---|---|---|---|
| 2026-04-17 09:00 | 50.04978 | 8.59151 | 362 ft | 0 kts | 160° |
| 2026-04-17 09:20 | 50.04982 | 8.59150 | 362 ft | 3 kts | 160° |
| 2026-04-17 09:21 | 50.05007 | 8.59135 | 364 ft | 4 kts | 160° |
| 2026-04-17 09:21 | 50.05031 | 8.59121 | 360 ft | 4 kts | 170° |
| 2026-04-17 09:21 | 50.05054 | 8.59126 | 362 ft | 4 kts | 225° |
| 2026-04-17 09:21 | 50.05064 | 8.59147 | 362 ft | 4 kts | 248° |
| 2026-04-17 09:22 | 50.05070 | 8.59172 | 359 ft | 1 kts | 250° |
| 2026-04-17 09:25 | 50.05049 | 8.59083 | 361 ft | 19 kts | 250° |
| 2026-04-17 09:25 | 50.04993 | 8.58848 | 359 ft | 24 kts | 249° |
| 2026-04-17 09:25 | 50.04910 | 8.58675 | 360 ft | 18 kts | 174° |
| 2026-04-17 09:26 | 50.04805 | 8.58731 | 365 ft | 14 kts | 159° |
| 2026-04-17 09:26 | 50.04697 | 8.58770 | 370 ft | 20 kts | 185° |
| 2026-04-17 09:26 | 50.04564 | 8.58692 | 371 ft | 21 kts | 219° |
| 2026-04-17 09:26 | 50.04467 | 8.58513 | 370 ft | 23 kts | 249° |
| 2026-04-17 09:27 | 50.04384 | 8.58162 | 372 ft | 63 kts | 249° |
| 2026-04-17 09:27 | 50.04151 | 8.57184 | 370 ft | 127 kts | 249° |
| 2026-04-17 09:27 | 50.03782 | 8.55639 | 360 ft | 175 kts | 249° |
| 2026-04-17 09:27 | 50.03353 | 8.53826 | 893 ft | 180 kts | 249° |
| 2026-04-17 09:28 | 50.02917 | 8.52006 | 1679 ft | 178 kts | 249° |
| 2026-04-17 09:28 | 50.02360 | 8.50295 | 2301 ft | 183 kts | 225° |
| 2026-04-17 09:28 | 50.01196 | 8.49336 | 2655 ft | 200 kts | 195° |
| 2026-04-17 09:28 | 49.99836 | 8.48750 | 3268 ft | 204 kts | 195° |
| 2026-04-17 09:29 | 49.98465 | 8.48144 | 4028 ft | 206 kts | 196° |
| 2026-04-17 09:29 | 49.97081 | 8.47525 | 4769 ft | 208 kts | 196° |
| 2026-04-17 09:29 | 49.95680 | 8.46892 | 5445 ft | 214 kts | 196° |
| 2026-04-17 09:29 | 49.94174 | 8.46201 | 5827 ft | 236 kts | 197° |
| 2026-04-17 09:30 | 49.92580 | 8.45385 | 6520 ft | 244 kts | 205° |
| 2026-04-17 09:30 | 49.91185 | 8.43868 | 7286 ft | 249 kts | 226° |
| 2026-04-17 09:30 | 49.90173 | 8.41670 | 8067 ft | 253 kts | 239° |
| 2026-04-17 09:30 | 49.89280 | 8.39302 | 8877 ft | 256 kts | 244° |
| 2026-04-17 09:31 | 49.88711 | 8.36673 | 9656 ft | 261 kts | 261° |
| 2026-04-17 09:31 | 49.88654 | 8.33757 | 10084 ft | 280 kts | 276° |
| 2026-04-17 09:31 | 49.88839 | 8.30692 | 10564 ft | 295 kts | 275° |
| 2026-04-17 09:31 | 49.89189 | 8.27445 | 10791 ft | 318 kts | 287° |
| 2026-04-17 09:32 | 49.90157 | 8.24285 | 11159 ft | 333 kts | 304° |
| 2026-04-17 09:32 | 49.91549 | 8.21365 | 11832 ft | 338 kts | 307° |
| 2026-04-17 09:32 | 49.92956 | 8.18427 | 12586 ft | 342 kts | 306° |
| 2026-04-17 09:32 | 49.94460 | 8.15611 | 13305 ft | 346 kts | 315° |
| 2026-04-17 09:33 | 49.96265 | 8.13118 | 14050 ft | 349 kts | 319° |
| 2026-04-17 09:33 | 49.98112 | 8.10650 | 14705 ft | 352 kts | 319° |
| 2026-04-17 09:33 | 49.99976 | 8.08162 | 15347 ft | 354 kts | 319° |
| 2026-04-17 09:33 | 50.01852 | 8.05654 | 15991 ft | 357 kts | 319° |
| 2026-04-17 09:34 | 50.03743 | 8.03125 | 16629 ft | 360 kts | 319° |
| 2026-04-17 09:34 | 50.05646 | 8.00574 | 17241 ft | 363 kts | 319° |
| 2026-04-17 09:34 | 50.07568 | 7.97999 | 17877 ft | 366 kts | 319° |
| 2026-04-17 09:34 | 50.09504 | 7.95399 | 18502 ft | 369 kts | 318° |
| 2026-04-17 09:35 | 50.11446 | 7.92786 | 19048 ft | 372 kts | 318° |
| 2026-04-17 09:35 | 50.13408 | 7.90145 | 19600 ft | 374 kts | 318° |
| 2026-04-17 09:35 | 50.15380 | 7.87487 | 20162 ft | 376 kts | 318° |
| 2026-04-17 09:35 | 50.17366 | 7.84803 | 20765 ft | 378 kts | 318° |
| 2026-04-17 09:36 | 50.19356 | 7.82106 | 21316 ft | 380 kts | 318° |
| 2026-04-17 09:36 | 50.21362 | 7.79387 | 21816 ft | 385 kts | 318° |
| 2026-04-17 09:36 | 50.23391 | 7.76638 | 22316 ft | 388 kts | 318° |
| 2026-04-17 09:36 | 50.25543 | 7.74061 | 22830 ft | 392 kts | 326° |
| 2026-04-17 09:37 | 50.27974 | 7.72079 | 23328 ft | 396 kts | 335° |
| 2026-04-17 09:37 | 50.30513 | 7.70363 | 23826 ft | 399 kts | 335° |
| 2026-04-17 09:37 | 50.33066 | 7.68629 | 24244 ft | 401 kts | 335° |
| 2026-04-17 09:37 | 50.35631 | 7.66876 | 24661 ft | 403 kts | 334° |
| 2026-04-17 09:38 | 50.38206 | 7.65110 | 25074 ft | 405 kts | 334° |
| 2026-04-17 09:38 | 50.40790 | 7.63333 | 25486 ft | 406 kts | 334° |
| 2026-04-17 09:38 | 50.43379 | 7.61549 | 25896 ft | 407 kts | 334° |
| 2026-04-17 09:38 | 50.45974 | 7.59759 | 26293 ft | 409 kts | 334° |
| 2026-04-17 09:39 | 50.48579 | 7.57958 | 26672 ft | 410 kts | 334° |
| 2026-04-17 09:39 | 50.51199 | 7.56144 | 27038 ft | 412 kts | 334° |
| 2026-04-17 09:39 | 50.53824 | 7.54324 | 27404 ft | 413 kts | 334° |
| 2026-04-17 09:39 | 50.56404 | 7.52324 | 27759 ft | 414 kts | 327° |
| 2026-04-17 09:40 | 50.58818 | 7.49901 | 28110 ft | 415 kts | 326° |
| 2026-04-17 09:40 | 50.61247 | 7.47421 | 28445 ft | 417 kts | 326° |
| 2026-04-17 09:40 | 50.63683 | 7.44930 | 28766 ft | 419 kts | 325° |
| 2026-04-17 09:40 | 50.66128 | 7.42419 | 29128 ft | 420 kts | 325° |
| 2026-04-17 09:41 | 50.68579 | 7.39896 | 29461 ft | 421 kts | 325° |
| 2026-04-17 09:41 | 50.71014 | 7.37368 | 29768 ft | 422 kts | 323° |
| 2026-04-17 09:41 | 50.73273 | 7.34417 | 30060 ft | 422 kts | 314° |
| 2026-04-17 09:41 | 50.75195 | 7.30920 | 30335 ft | 423 kts | 305° |
| 2026-04-17 09:42 | 50.76730 | 7.26967 | 30568 ft | 424 kts | 297° |
| 2026-04-17 09:42 | 50.78073 | 7.22824 | 30804 ft | 425 kts | 297° |
| 2026-04-17 09:42 | 50.79425 | 7.18657 | 31019 ft | 426 kts | 297° |
| 2026-04-17 09:42 | 50.80776 | 7.14505 | 31327 ft | 424 kts | 297° |
| 2026-04-17 09:43 | 50.82121 | 7.10367 | 31647 ft | 423 kts | 297° |
| 2026-04-17 09:43 | 50.83463 | 7.06234 | 31972 ft | 421 kts | 297° |
| 2026-04-17 09:43 | 50.84786 | 7.02151 | 32278 ft | 420 kts | 297° |
| 2026-04-17 09:43 | 50.86107 | 6.98065 | 32582 ft | 419 kts | 297° |
| 2026-04-17 09:44 | 50.87428 | 6.93969 | 32889 ft | 417 kts | 297° |
| 2026-04-17 09:44 | 50.88743 | 6.89882 | 33195 ft | 416 kts | 297° |
| 2026-04-17 09:44 | 50.90052 | 6.85802 | 33520 ft | 415 kts | 297° |
| 2026-04-17 09:44 | 50.91355 | 6.81735 | 33841 ft | 414 kts | 297° |
| 2026-04-17 09:45 | 50.92655 | 6.77678 | 34148 ft | 413 kts | 297° |
| 2026-04-17 09:45 | 50.93951 | 6.73632 | 34233 ft | 410 kts | 296° |
| 2026-04-17 09:45 | 50.96510 | 6.65606 | 34247 ft | 406 kts | 296° |
| 2026-04-17 09:46 | 50.99056 | 6.57610 | 34246 ft | 406 kts | 296° |
| 2026-04-17 09:46 | 51.01597 | 6.49589 | 34242 ft | 406 kts | 296° |
| 2026-04-17 09:47 | 51.04138 | 6.41572 | 34242 ft | 406 kts | 296° |
| 2026-04-17 09:47 | 51.06670 | 6.33537 | 34242 ft | 406 kts | 296° |
| 2026-04-17 09:48 | 51.09186 | 6.25511 | 34238 ft | 406 kts | 296° |
| 2026-04-17 09:48 | 51.11700 | 6.17464 | 34233 ft | 406 kts | 296° |
| 2026-04-17 09:49 | 51.14085 | 6.09313 | 34233 ft | 405 kts | 288° |
| 2026-04-17 09:49 | 51.15539 | 6.00640 | 34233 ft | 405 kts | 284° |
| 2026-04-17 09:50 | 51.16935 | 5.92006 | 34224 ft | 405 kts | 284° |
| 2026-04-17 09:50 | 51.18346 | 5.83309 | 34229 ft | 405 kts | 285° |
| 2026-04-17 09:51 | 51.20045 | 5.74743 | 34251 ft | 405 kts | 289° |
| 2026-04-17 09:51 | 51.21999 | 5.66329 | 34243 ft | 404 kts | 290° |
| 2026-04-17 09:52 | 51.23927 | 5.57900 | 34232 ft | 404 kts | 289° |
| 2026-04-17 09:52 | 51.25774 | 5.49441 | 34232 ft | 404 kts | 288° |
| 2026-04-17 09:53 | 51.27596 | 5.40962 | 34224 ft | 404 kts | 288° |
| 2026-04-17 09:53 | 51.29412 | 5.32485 | 34229 ft | 403 kts | 288° |
| 2026-04-17 09:54 | 51.31232 | 5.23996 | 34227 ft | 404 kts | 288° |
| 2026-04-17 09:54 | 51.33053 | 5.15513 | 34238 ft | 404 kts | 288° |
| 2026-04-17 09:55 | 51.34860 | 5.07010 | 34237 ft | 404 kts | 288° |
| 2026-04-17 09:55 | 51.36659 | 4.98495 | 34238 ft | 404 kts | 288° |
| 2026-04-17 09:56 | 51.38457 | 4.89990 | 34238 ft | 403 kts | 288° |
| 2026-04-17 09:56 | 51.40248 | 4.81475 | 34237 ft | 403 kts | 288° |
| 2026-04-17 09:57 | 51.42029 | 4.72957 | 34250 ft | 403 kts | 288° |
| 2026-04-17 09:57 | 51.43783 | 4.64504 | 34227 ft | 403 kts | 288° |
| 2026-04-17 09:58 | 51.45549 | 4.55971 | 34222 ft | 402 kts | 288° |
| 2026-04-17 09:58 | 51.47310 | 4.47460 | 34218 ft | 402 kts | 288° |
| 2026-04-17 09:59 | 51.49066 | 4.38948 | 34215 ft | 402 kts | 288° |
| 2026-04-17 09:59 | 51.50809 | 4.30436 | 34230 ft | 402 kts | 287° |
| 2026-04-17 10:00 | 51.52543 | 4.21914 | 34225 ft | 401 kts | 287° |
| 2026-04-17 10:00 | 51.54274 | 4.13397 | 34217 ft | 401 kts | 287° |
| 2026-04-17 10:01 | 51.56000 | 4.04883 | 34213 ft | 401 kts | 287° |
| 2026-04-17 10:01 | 51.57717 | 3.96369 | 34205 ft | 400 kts | 287° |
| 2026-04-17 10:02 | 51.59418 | 3.87850 | 34195 ft | 400 kts | 287° |
| 2026-04-17 10:02 | 51.61116 | 3.79318 | 34194 ft | 400 kts | 287° |
| 2026-04-17 10:03 | 51.62763 | 3.71023 | 34195 ft | 400 kts | 286° |
| 2026-04-17 10:03 | 51.64445 | 3.62483 | 34194 ft | 400 kts | 286° |
| 2026-04-17 10:04 | 51.66112 | 3.54028 | 34193 ft | 400 kts | 286° |
| 2026-04-17 10:04 | 51.67635 | 3.46261 | 34195 ft | 400 kts | 286° |
| 2026-04-17 10:05 | 51.68910 | 3.39724 | 34194 ft | 400 kts | 286° |
| 2026-04-17 10:05 | 51.70175 | 3.33230 | 34200 ft | 400 kts | 285° |
| 2026-04-17 10:06 | 51.71482 | 3.26472 | 34199 ft | 400 kts | 285° |
| 2026-04-17 10:06 | 51.72723 | 3.19208 | 34200 ft | 398 kts | 278° |
| 2026-04-17 10:07 | 51.72687 | 3.10326 | 34195 ft | 398 kts | 263° |
| 2026-04-17 10:07 | 51.71914 | 3.01500 | 34198 ft | 398 kts | 263° |
| 2026-04-17 10:08 | 51.71152 | 2.92657 | 34199 ft | 398 kts | 263° |
| 2026-04-17 10:08 | 51.70516 | 2.85318 | 34206 ft | 398 kts | 262° |
| 2026-04-17 10:09 | 51.69732 | 2.76488 | 34196 ft | 399 kts | 262° |
| 2026-04-17 10:09 | 51.68936 | 2.67608 | 33026 ft | 407 kts | 262° |
| 2026-04-17 10:10 | 51.68526 | 2.63029 | 31769 ft | 416 kts | 262° |
| 2026-04-17 10:10 | 51.68110 | 2.58407 | 30880 ft | 416 kts | 261° |
| 2026-04-17 10:10 | 51.67696 | 2.53809 | 30113 ft | 414 kts | 261° |
| 2026-04-17 10:11 | 51.66878 | 2.44726 | 28727 ft | 403 kts | 261° |
| 2026-04-17 10:11 | 51.66477 | 2.40291 | 28152 ft | 397 kts | 261° |
| 2026-04-17 10:11 | 51.66076 | 2.35921 | 27567 ft | 392 kts | 261° |
| 2026-04-17 10:11 | 51.65679 | 2.31604 | 27005 ft | 387 kts | 260° |
| 2026-04-17 10:12 | 51.65285 | 2.27342 | 26457 ft | 382 kts | 260° |
| 2026-04-17 10:12 | 51.64891 | 2.23132 | 25922 ft | 378 kts | 260° |
| 2026-04-17 10:12 | 51.64497 | 2.18970 | 25409 ft | 374 kts | 260° |
| 2026-04-17 10:12 | 51.64107 | 2.14853 | 24899 ft | 370 kts | 260° |
| 2026-04-17 10:13 | 51.63724 | 2.10775 | 24408 ft | 367 kts | 260° |
| 2026-04-17 10:13 | 51.63346 | 2.06733 | 23928 ft | 364 kts | 260° |
| 2026-04-17 10:13 | 51.62977 | 2.02726 | 23414 ft | 361 kts | 260° |
| 2026-04-17 10:13 | 51.62617 | 1.98758 | 22947 ft | 356 kts | 260° |
| 2026-04-17 10:14 | 51.62265 | 1.94889 | 22497 ft | 352 kts | 260° |
| 2026-04-17 10:14 | 51.61899 | 1.90964 | 22038 ft | 348 kts | 259° |
| 2026-04-17 10:14 | 51.61498 | 1.87195 | 21575 ft | 345 kts | 256° |
| 2026-04-17 10:14 | 51.61091 | 1.83388 | 21115 ft | 346 kts | 263° |
| 2026-04-17 10:15 | 51.60771 | 1.79566 | 20664 ft | 344 kts | 259° |
| 2026-04-17 10:15 | 51.60175 | 1.75868 | 20217 ft | 341 kts | 249° |
| 2026-04-17 10:15 | 51.59351 | 1.72302 | 19781 ft | 340 kts | 249° |
| 2026-04-17 10:15 | 51.58527 | 1.68743 | 19348 ft | 338 kts | 249° |
| 2026-04-17 10:16 | 51.57705 | 1.65212 | 18923 ft | 337 kts | 249° |
| 2026-04-17 10:16 | 51.56881 | 1.61694 | 18501 ft | 335 kts | 249° |
| 2026-04-17 10:16 | 51.56057 | 1.58191 | 18021 ft | 334 kts | 249° |
| 2026-04-17 10:16 | 51.55238 | 1.54712 | 17535 ft | 333 kts | 249° |
| 2026-04-17 10:17 | 51.54420 | 1.51245 | 17055 ft | 331 kts | 249° |
| 2026-04-17 10:17 | 51.53605 | 1.47797 | 16599 ft | 329 kts | 248° |
| 2026-04-17 10:17 | 51.52794 | 1.44371 | 16143 ft | 328 kts | 248° |
| 2026-04-17 10:17 | 51.51986 | 1.40960 | 15704 ft | 326 kts | 248° |
| 2026-04-17 10:18 | 51.51181 | 1.37571 | 15270 ft | 324 kts | 248° |
| 2026-04-17 10:18 | 51.50380 | 1.34195 | 14825 ft | 323 kts | 248° |
| 2026-04-17 10:18 | 51.49583 | 1.30842 | 14396 ft | 321 kts | 248° |
| 2026-04-17 10:18 | 51.48785 | 1.27509 | 13963 ft | 319 kts | 248° |
| 2026-04-17 10:19 | 51.47990 | 1.24194 | 13487 ft | 318 kts | 248° |
| 2026-04-17 10:19 | 51.47200 | 1.20896 | 13014 ft | 316 kts | 248° |
| 2026-04-17 10:19 | 51.46417 | 1.17617 | 12549 ft | 314 kts | 248° |
| 2026-04-17 10:19 | 51.45642 | 1.14364 | 12082 ft | 312 kts | 248° |
| 2026-04-17 10:20 | 51.44871 | 1.11130 | 11629 ft | 309 kts | 248° |
| 2026-04-17 10:20 | 51.44110 | 1.07957 | 11188 ft | 307 kts | 248° |
| 2026-04-17 10:20 | 51.43346 | 1.04779 | 10747 ft | 305 kts | 248° |
| 2026-04-17 10:20 | 51.42574 | 1.01581 | 10316 ft | 301 kts | 248° |
| 2026-04-17 10:21 | 51.41837 | 0.98543 | 10059 ft | 281 kts | 248° |
| 2026-04-17 10:21 | 51.41143 | 0.95684 | 9928 ft | 273 kts | 248° |
| 2026-04-17 10:21 | 51.40456 | 0.92874 | 9798 ft | 269 kts | 248° |
| 2026-04-17 10:21 | 51.39773 | 0.90085 | 9667 ft | 268 kts | 248° |
| 2026-04-17 10:22 | 51.39096 | 0.87303 | 9535 ft | 268 kts | 248° |
| 2026-04-17 10:22 | 51.38424 | 0.84517 | 9405 ft | 268 kts | 248° |
| 2026-04-17 10:22 | 51.37767 | 0.81783 | 9269 ft | 267 kts | 248° |
| 2026-04-17 10:22 | 51.37094 | 0.79018 | 9171 ft | 265 kts | 248° |
| 2026-04-17 10:23 | 51.36421 | 0.76264 | 9184 ft | 266 kts | 248° |